Time;durP1;ratioP1;P1;durP2;ratioP2;P2;SDS_P1;SDS_P2;PMS_P1;PMS_P2;Temp;Humidity;BMP_temperature;BMP_pressure;BME280_temperature;BME280_humidity;BME280_pressure;Samples;Min_cycle;Max_cycle;Signal;HPM_P1;HPM_P2
2022/03/14 00:02:08;;;;;;;13.13;7.00;;;;;;;4.19;45.76;100791.03;5048663;28;20107;-70
2022/03/14 00:04:38;;;;;;;13.70;6.40;;;;;;;4.19;45.41;100767.25;5030775;28;20040;-70
2022/03/14 00:07:04;;;;;;;15.60;7.05;;;;;;;4.16;45.39;100752.47;5030560;28;20087;-70
2022/03/14 00:09:30;;;;;;;15.55;7.57;;;;;;;4.10;45.49;100745.03;5048053;28;20365;-71
2022/03/14 00:11:57;;;;;;;17.20;7.80;;;;;;;4.14;45.26;100748.28;5030474;28;20043;-70
2022/03/14 00:14:25;;;;;;;14.85;7.03;;;;;;;4.08;45.16;100730.28;5047174;28;20458;-70
2022/03/14 00:16:52;;;;;;;13.43;7.25;;;;;;;4.22;45.00;100736.16;5030530;28;20048;-71
2022/03/14 00:19:20;;;;;;;16.35;7.05;;;;;;;4.16;45.05;100723.41;5047770;28;20040;-71
2022/03/14 00:21:46;;;;;;;12.63;7.57;;;;;;;4.15;44.81;100731.47;5048124;28;20049;-71
2022/03/14 00:24:11;;;;;;;14.57;7.32;;;;;;;4.19;45.22;100743.47;5047985;28;20025;-70
2022/03/14 00:26:38;;;;;;;16.90;7.75;;;;;;;4.17;45.05;100737.47;5030095;28;20037;-70
2022/03/14 00:29:08;;;;;;;13.20;7.00;;;;;;;4.21;44.80;100734.47;5029938;28;20056;-71
2022/03/14 00:31:35;;;;;;;15.88;7.53;;;;;;;4.23;44.76;100723.75;5048032;28;20523;-71
2022/03/14 00:34:00;;;;;;;14.20;7.63;;;;;;;4.22;44.65;100720.28;5030345;28;20045;-71
2022/03/14 00:36:27;;;;;;;17.08;7.57;;;;;;;4.28;44.56;100721.59;5030084;28;20498;-71
2022/03/14 00:38:54;;;;;;;14.65;7.90;;;;;;;4.27;44.41;100705.88;5013192;28;20112;-71
2022/03/14 00:41:19;;;;;;;16.38;8.05;;;;;;;4.30;44.67;100711.72;5029011;28;20083;-71
2022/03/14 00:43:45;;;;;;;14.20;7.80;;;;;;;4.21;44.40;100681.63;5047624;28;20927;-70
2022/03/14 00:46:11;;;;;;;14.27;7.72;;;;;;;4.19;44.67;100709.97;5047854;28;20041;-70
2022/03/14 00:48:37;;;;;;;15.38;9.30;;;;;;;4.30;44.21;100716.19;5029294;28;20025;-71
2022/03/14 00:51:04;;;;;;;16.13;9.37;;;;;;;4.22;44.36;100704.44;5029372;28;20119;-71
2022/03/14 00:53:31;;;;;;;16.15;8.52;;;;;;;4.18;44.74;100718.00;5046931;28;20029;-71
2022/03/14 00:55:58;;;;;;;14.35;7.07;;;;;;;4.17;44.66;100725.09;5046826;28;20036;-70
2022/03/14 00:58:24;;;;;;;17.17;8.27;;;;;;;4.07;45.10;100726.78;5046879;28;20021;-70
2022/03/14 01:00:49;;;;;;;19.65;8.68;;;;;;;4.02;45.33;100734.22;5028962;28;20043;-70
2022/03/14 01:03:15;;;;;;;21.23;9.18;;;;;;;3.94;45.44;100737.47;5028875;28;20128;-70
2022/03/14 01:05:40;;;;;;;18.65;8.93;;;;;;;3.86;45.88;100749.59;5045647;28;20068;-70
2022/03/14 01:08:06;;;;;;;16.90;9.00;;;;;;;3.87;45.87;100767.13;5028670;28;20033;-70
2022/03/14 01:10:32;;;;;;;16.08;8.45;;;;;;;3.81;46.22;100774.53;5046404;28;20118;-70
2022/03/14 01:12:58;;;;;;;17.85;8.00;;;;;;;3.78;46.12;100777.44;5046568;28;20056;-70
2022/03/14 01:15:24;;;;;;;15.88;9.40;;;;;;;3.76;46.37;100783.78;5046687;28;20643;-71
2022/03/14 01:17:50;;;;;;;16.83;8.68;;;;;;;3.77;46.23;100788.13;5028909;28;20040;-70
2022/03/14 01:20:16;;;;;;;18.70;8.80;;;;;;;3.72;46.48;100792.91;5046165;28;20036;-71
2022/03/14 01:22:43;;;;;;;24.00;9.73;;;;;;;3.68;46.84;100810.78;5046456;28;20033;-71
2022/03/14 01:25:09;;;;;;;19.90;9.40;;;;;;;3.55;47.44;100820.59;5028774;28;20033;-71
2022/03/14 01:27:34;;;;;;;20.67;9.88;;;;;;;3.50;47.32;100826.22;5045073;28;20846;-71
2022/03/14 01:30:00;;;;;;;16.20;8.70;;;;;;;3.40;47.58;100830.50;5045943;28;20727;-72
2022/03/14 01:32:25;;;;;;;21.70;9.23;;;;;;;3.41;47.49;100847.19;5045483;28;20068;-71
2022/03/14 01:34:51;;;;;;;19.40;9.00;;;;;;;3.42;47.48;100868.19;5028318;28;20271;-71
2022/03/14 01:37:18;;;;;;;18.92;9.07;;;;;;;3.46;47.45;100871.44;5028355;28;20227;-70
2022/03/14 01:39:44;;;;;;;18.08;8.50;;;;;;;3.47;47.50;100867.84;5045791;28;20024;-70
2022/03/14 01:42:18;;;;;;;19.83;9.07;;;;;;;3.44;47.47;100883.91;5028469;28;20062;-71
2022/03/14 01:44:47;;;;;;;20.17;10.02;;;;;;;3.38;47.58;100893.94;5046138;28;20052;-70
2022/03/14 01:47:16;;;;;;;18.38;9.50;;;;;;;3.27;48.31;100893.06;5012122;28;20139;-71
2022/03/14 01:49:43;;;;;;;17.63;8.80;;;;;;;3.30;47.86;100896.31;5045642;28;20052;-70
2022/03/14 01:52:09;;;;;;;21.42;9.00;;;;;;;3.34;47.85;100902.22;5045867;28;20056;-70
2022/03/14 01:54:36;;;;;;;20.75;9.15;;;;;;;3.27;47.78;100871.94;5027932;28;20044;-70
2022/03/14 01:57:01;;;;;;;;;;;;;;;3.29;47.92;100902.53;5028821;28;20033;-70
2022/03/14 01:59:29;;;;;;;19.00;9.45;;;;;;;3.21;48.19;100902.28;5011332;28;19924;-70
2022/03/14 02:02:03;;;;;;;15.90;8.73;;;;;;;3.30;48.18;100927.13;5040215;28;20025;-71
2022/03/14 02:04:28;;;;;;;22.65;10.32;;;;;;;3.24;47.94;100894.13;5034281;28;20044;-70
2022/03/14 02:06:55;;;;;;;18.73;9.27;;;;;;;3.16;47.98;100883.25;5009231;28;20060;-71
2022/03/14 02:09:20;;;;;;;21.70;10.02;;;;;;;3.32;47.43;100915.50;5007881;28;20462;-70
2022/03/14 02:12:06;;;;;;;22.00;10.70;;;;;;;3.32;47.34;100873.28;5008431;28;20037;-71
2022/03/14 02:14:35;;;;;;;18.45;9.70;;;;;;;3.32;47.21;100873.28;5024237;28;20514;-71
2022/03/14 02:17:00;;;;;;;16.88;9.88;;;;;;;3.26;47.38;100873.75;5008159;28;20033;-70
2022/03/14 02:19:26;;;;;;;17.80;8.82;;;;;;;3.17;47.66;100875.25;5007670;28;20090;-70
2022/03/14 02:21:51;;;;;;;20.60;10.10;;;;;;;3.13;48.02;100892.25;5025642;28;20052;-70
2022/03/14 02:24:17;;;;;;;18.73;9.50;;;;;;;3.06;47.99;100876.97;5024433;28;20474;-71
2022/03/14 02:26:43;;;;;;;16.07;10.70;;;;;;;3.06;48.04;100892.81;5025649;28;20609;-70
2022/03/14 02:29:10;;;;;;;18.17;9.93;;;;;;;3.01;48.12;100895.78;5025068;28;20021;-70
2022/03/14 02:31:36;;;;;;;20.67;9.40;;;;;;;3.03;48.26;100890.41;5008059;28;20037;-70
2022/03/14 02:34:05;;;;;;;20.90;10.27;;;;;;;2.95;48.15;100891.81;5025134;28;20026;-70
2022/03/14 02:36:31;;;;;;;23.80;11.38;;;;;;;2.97;48.28;100894.31;5025512;28;20033;-70
2022/03/14 02:38:57;;;;;;;21.45;9.90;;;;;;;2.93;48.30;100892.88;5024942;28;20033;-71
2022/03/14 02:41:24;;;;;;;19.10;9.85;;;;;;;2.82;48.42;100877.78;5007947;28;20026;-70
2022/03/14 02:43:55;;;;;;;20.02;9.52;;;;;;;2.75;48.80;100887.09;5007827;28;20416;-71
2022/03/14 02:46:21;;;;;;;;;;;;;;;2.84;48.72;100910.19;5024663;28;20041;-71
2022/03/14 02:48:46;;;;;;;22.23;9.02;;;;;;;2.77;49.07;100930.03;5007585;28;19948;-71
2022/03/14 02:51:12;;;;;;;28.38;10.27;;;;;;;2.69;48.92;100908.59;5007792;28;20609;-70
2022/03/14 02:53:37;;;;;;;16.80;9.30;;;;;;;2.69;49.03;100921.78;5024404;28;20037;-71
2022/03/14 02:56:03;;;;;;;21.47;10.00;;;;;;;2.80;48.87;100939.50;5025372;28;20109;-71
2022/03/14 02:58:30;;;;;;;23.67;10.35;;;;;;;2.76;48.75;100923.03;5025102;28;20025;-71
2022/03/14 03:00:56;;;;;;;23.38;10.82;;;;;;;2.84;48.49;100920.72;5033018;28;20036;-71
2022/03/14 03:03:21;;;;;;;;;;;;;;;2.84;48.46;100931.28;5031048;28;20045;-70
2022/03/14 03:05:47;;;;;;;19.35;9.90;;;;;;;2.79;48.46;100909.66;5010599;28;19913;-71
2022/03/14 03:08:13;;;;;;;26.90;11.13;;;;;;;2.78;48.38;100907.97;5011481;28;20049;-71
2022/03/14 03:10:41;;;;;;;21.80;11.23;;;;;;;2.70;48.54;100902.41;5028626;28;20025;-70
2022/03/14 03:13:06;;;;;;;19.60;10.10;;;;;;;2.64;48.91;100922.09;5011409;28;20083;-70
2022/03/14 03:15:32;;;;;;;26.17;11.95;;;;;;;2.59;48.99;100936.56;5028808;28;20390;-71
2022/03/14 03:17:58;;;;;;;26.88;10.05;;;;;;;2.63;49.01;100949.44;5029072;28;20601;-71
2022/03/14 03:20:25;;;;;;;23.65;10.82;;;;;;;2.58;49.21;100955.97;5010426;28;20033;-71
2022/03/14 03:22:50;;;;;;;20.00;10.88;;;;;;;2.53;49.53;100975.59;5029001;28;20483;-71
2022/03/14 03:25:16;;;;;;;19.65;9.80;;;;;;;2.57;49.55;100985.91;5028701;28;20040;-70
2022/03/14 03:27:41;;;;;;;24.67;10.93;;;;;;;2.49;49.67;100979.38;5028584;28;20072;-71
2022/03/14 03:30:09;;;;;;;25.48;10.90;;;;;;;2.57;49.10;100949.84;5028251;28;20044;-71
2022/03/14 03:32:34;;;;;;;24.60;11.50;;;;;;;2.56;48.98;100958.72;5010569;28;20032;-71
2022/03/14 03:35:00;;;;;;;25.67;10.53;;;;;;;2.51;49.10;100943.22;5027263;28;20041;-71
2022/03/14 03:37:25;;;;;;;22.50;11.20;;;;;;;2.54;48.69;100940.34;5028380;28;20033;-70
2022/03/14 03:39:51;;;;;;;23.20;10.70;;;;;;;2.44;48.76;100915.59;5010623;28;20124;-71
2022/03/14 03:42:16;;;;;;;21.37;9.73;;;;;;;2.37;49.30;100918.78;5010723;28;20367;-71
2022/03/14 03:44:41;;;;;;;24.63;11.93;;;;;;;2.33;49.30;100944.47;5010714;28;20108;-71
2022/03/14 03:47:07;;;;;;;21.30;10.67;;;;;;;2.33;49.14;100947.09;5010388;28;20444;-71
2022/03/14 03:49:33;;;;;;;20.80;10.48;;;;;;;2.32;49.23;100958.59;5010210;28;20033;-71
2022/03/14 03:51:58;;;;;;;24.95;12.20;;;;;;;2.23;49.69;100956.59;5010654;28;20104;-71
2022/03/14 03:54:24;;;;;;;26.47;11.83;;;;;;;2.29;49.32;100971.97;5010474;28;20067;-71
2022/03/14 03:56:49;;;;;;;26.77;11.53;;;;;;;2.31;49.53;100980.63;5010482;28;20087;-71
2022/03/14 03:59:15;;;;;;;23.98;11.85;;;;;;;2.28;49.47;100986.94;5010257;28;20963;-71
2022/03/14 04:01:41;;;;;;;24.63;12.10;;;;;;;2.22;49.67;100997.88;5026754;28;20033;-71
2022/03/14 04:04:07;;;;;;;25.98;11.82;;;;;;;2.21;50.07;101008.53;5010418;28;20044;-72
2022/03/14 04:06:34;;;;;;;18.50;11.40;;;;;;;2.19;50.03;101005.16;5010362;28;20017;-71
2022/03/14 04:09:00;;;;;;;24.73;12.10;;;;;;;2.21;49.98;101029.63;5026469;28;20323;-71
2022/03/14 04:11:26;;;;;;;23.70;12.32;;;;;;;2.20;49.98;101025.28;5026687;28;20461;-71
2022/03/14 04:13:53;;;;;;;23.42;10.88;;;;;;;2.16;50.30;101029.06;5010288;28;20029;-70
2022/03/14 04:16:19;;;;;;;22.98;12.00;;;;;;;2.29;49.92;101038.69;5009748;28;20038;-71
2022/03/14 04:18:46;;;;;;;27.00;12.05;;;;;;;2.25;49.81;101007.41;5009896;28;20498;-71
2022/03/14 04:21:13;;;;;;;27.97;12.33;;;;;;;2.15;49.74;100986.06;5010601;28;20087;-71
2022/03/14 04:23:38;;;;;;;23.05;11.75;;;;;;;2.12;49.89;100996.81;5010061;28;20036;-71
2022/03/14 04:26:04;;;;;;;26.77;12.57;;;;;;;2.11;50.00;101006.50;5026592;28;20029;-72
2022/03/14 04:28:30;;;;;;;31.60;13.00;;;;;;;2.07;49.98;101019.97;5027054;28;20040;-71
2022/03/14 04:30:55;;;;;;;26.43;13.17;;;;;;;2.01;50.19;101013.31;5027462;28;20052;-71
2022/03/14 04:33:20;;;;;;;27.10;12.30;;;;;;;2.05;50.30;101043.78;5027172;28;20041;-71
2022/03/14 04:35:46;;;;;;;24.40;12.27;;;;;;;2.00;50.23;101011.63;5027600;28;20470;-71
2022/03/14 04:38:13;;;;;;;23.40;11.43;;;;;;;1.99;50.20;101004.69;5009649;28;20026;-71
2022/03/14 04:40:39;;;;;;;26.45;12.57;;;;;;;2.00;50.11;101009.00;5009567;28;20386;-71
2022/03/14 04:43:09;;;;;;;30.58;12.43;;;;;;;1.86;50.34;100993.28;5009589;28;20128;-71
2022/03/14 04:45:36;;;;;;;33.17;12.77;;;;;;;1.76;50.44;101000.94;5025974;28;20457;-71
2022/03/14 04:48:04;;;;;;;25.70;11.93;;;;;;;1.80;50.60;101022.63;5009419;28;20104;-70
2022/03/14 04:50:30;;;;;;;29.33;12.27;;;;;;;1.83;50.23;101012.75;5008910;28;20037;-71
2022/03/14 04:52:56;;;;;;;29.27;11.57;;;;;;;1.73;50.54;101006.38;5026988;28;20048;-71
2022/03/14 04:55:21;;;;;;;30.70;13.05;;;;;;;1.76;50.54;101023.78;5009348;28;20033;-72
2022/03/14 04:57:47;;;;;;;27.35;13.48;;;;;;;1.63;50.77;101014.00;5026887;28;20052;-71
2022/03/14 05:00:13;;;;;;;24.23;12.10;;;;;;;1.49;51.24;101024.59;5009115;28;20446;-71
2022/03/14 05:02:38;;;;;;;30.17;13.27;;;;;;;1.52;51.38;101053.31;5026899;28;20108;-71
2022/03/14 05:05:04;;;;;;;33.75;14.20;;;;;;;1.43;51.58;101049.50;5026914;28;20471;-71
2022/03/14 05:07:30;;;;;;;27.92;13.13;;;;;;;1.41;51.36;101071.59;5026715;28;20051;-71
2022/03/14 05:09:56;;;;;;;26.23;12.27;;;;;;;1.44;51.43;101066.97;5008966;28;20066;-71
2022/03/14 05:12:22;;;;;;;23.58;11.45;;;;;;;1.53;50.93;101068.19;5008677;28;20034;-71
2022/03/14 05:14:51;;;;;;;27.73;12.77;;;;;;;1.41;51.32;101047.91;5019821;28;20065;-71
2022/03/14 05:17:17;;;;;;;25.00;11.77;;;;;;;1.54;51.21;101105.88;5018539;28;20033;-71
2022/03/14 05:19:44;;;;;;;26.38;12.18;;;;;;;1.55;51.03;101082.09;5019831;28;20031;-71
2022/03/14 05:22:10;;;;;;;28.77;13.17;;;;;;;1.55;50.61;101055.78;5006894;28;20190;-71
2022/03/14 05:24:35;;;;;;;29.93;13.63;;;;;;;1.58;50.66;101079.25;4988900;28;20038;-70
2022/03/14 05:27:01;;;;;;;28.50;12.43;;;;;;;1.69;50.65;101103.13;5006066;28;20612;-71
2022/03/14 05:29:26;;;;;;;31.88;13.85;;;;;;;1.76;50.83;101131.72;4988685;28;20415;-71
2022/03/14 05:31:52;;;;;;;25.35;12.98;;;;;;;1.72;50.80;101127.56;5006763;28;20487;-71
2022/03/14 05:34:18;;;;;;;28.42;13.40;;;;;;;1.66;51.08;101121.75;5006434;28;20517;-71
2022/03/14 05:36:44;;;;;;;34.30;15.50;;;;;;;1.54;51.50;101124.28;4988615;28;20041;-70
2022/03/14 05:39:09;;;;;;;29.15;13.80;;;;;;;1.49;51.81;101140.38;4988613;28;20277;-71
2022/03/14 05:41:34;;;;;;;33.97;15.07;;;;;;;1.36;52.29;101142.03;4989055;28;20043;-71
2022/03/14 05:44:00;;;;;;;29.73;13.97;;;;;;;1.31;52.82;101157.28;5006471;28;20077;-71
2022/03/14 05:46:25;;;;;;;31.27;14.10;;;;;;;1.27;52.76;101162.72;4989157;28;20033;-71
2022/03/14 05:48:50;;;;;;;27.70;13.27;;;;;;;1.31;52.89;101178.31;5006195;28;20046;-71
2022/03/14 05:51:16;;;;;;;24.97;13.03;;;;;;;1.40;52.69;101199.66;4989005;28;20026;-70
2022/03/14 05:53:41;;;;;;;25.83;13.10;;;;;;;1.44;52.59;101201.16;5006356;28;20041;-71
2022/03/14 05:56:06;;;;;;;35.57;14.50;;;;;;;1.37;52.77;101188.47;5006250;28;20026;-71
2022/03/14 05:58:32;;;;;;;35.13;15.00;;;;;;;1.37;52.62;101180.59;4988486;28;20076;-71
2022/03/14 06:00:57;;;;;;;33.27;14.33;;;;;;;1.41;52.73;101209.25;4987807;28;20021;-71
2022/03/14 06:03:22;;;;;;;35.23;14.93;;;;;;;1.45;52.71;101208.13;4988763;28;20034;-70
2022/03/14 06:05:49;;;;;;;35.20;14.77;;;;;;;1.55;52.63;101229.47;5006093;28;20423;-71
2022/03/14 06:08:17;;;;;;;27.98;14.05;;;;;;;1.60;52.72;101237.09;4988747;28;20123;-71
2022/03/14 06:10:45;;;;;;;31.83;15.55;;;;;;;1.63;52.78;101242.16;5005772;28;20033;-71
2022/03/14 06:13:15;;;;;;;37.53;14.85;;;;;;;1.67;52.89;101249.78;5006135;28;20034;-71
2022/03/14 06:15:45;;;;;;;30.15;14.68;;;;;;;1.66;52.93;101258.63;4988379;28;20036;-70
2022/03/14 06:18:11;;;;;;;31.05;14.43;;;;;;;1.79;52.60;101265.78;5005336;28;20418;-71
2022/03/14 06:20:37;;;;;;;32.33;14.20;;;;;;;1.86;52.53;101269.72;4988060;28;20026;-71
2022/03/14 06:23:02;;;;;;;34.83;14.93;;;;;;;1.90;52.40;101260.72;5006229;28;20033;-71
2022/03/14 06:25:28;;;;;;;30.35;14.80;;;;;;;1.92;52.19;101256.19;5006109;28;20040;-71
2022/03/14 06:27:53;;;;;;;31.75;13.75;;;;;;;2.00;52.01;101251.28;5005982;28;20494;-71
2022/03/14 06:30:19;;;;;;;35.13;15.43;;;;;;;2.02;51.60;101236.25;4988133;28;20097;-71
2022/03/14 06:32:47;;;;;;;34.95;14.65;;;;;;;2.08;51.40;101235.00;4988485;28;20033;-71
2022/03/14 06:35:14;;;;;;;28.77;13.93;;;;;;;2.14;51.29;101234.63;5005387;28;20487;-71
2022/03/14 06:37:41;;;;;;;29.13;14.00;;;;;;;2.21;50.95;101237.75;5005940;28;20034;-71
2022/03/14 06:40:06;;;;;;;;;;;;;;;2.33;51.11;101273.84;4992159;28;20026;-70
2022/03/14 06:42:31;;;;;;;31.27;13.63;;;;;;;2.75;50.42;101301.06;5009986;28;19913;-71
2022/03/14 06:45:02;;;;;;;31.57;15.97;;;;;;;2.67;50.08;101234.78;5009649;28;20093;-69
2022/03/14 06:47:28;;;;;;;32.05;13.27;;;;;;;3.13;49.52;101310.91;4992293;28;20034;-70
2022/03/14 06:49:54;;;;;;;26.88;13.65;;;;;;;3.57;48.30;101270.16;5009153;28;20022;-70
2022/03/14 06:52:19;;;;;;;29.23;13.77;;;;;;;3.79;47.44;101230.75;4992053;28;20038;-70
2022/03/14 06:54:45;;;;;;;27.05;13.93;;;;;;;3.89;46.90;101199.25;5009391;28;20041;-69
2022/03/14 06:57:11;;;;;;;28.63;14.23;;;;;;;4.15;46.74;101215.91;5009515;28;20084;-70
2022/03/14 06:59:37;;;;;;;35.75;14.25;;;;;;;4.29;46.60;101214.06;5016985;28;20504;-70
2022/03/14 07:02:03;;;;;;;37.40;15.57;;;;;;;3.98;46.48;101124.63;5029424;28;20021;-70
2022/03/14 07:04:29;;;;;;;;;;;;;;;4.28;46.40;101188.59;5029182;28;20029;-71
2022/03/14 07:06:54;;;;;;;;;;;;;;;4.35;46.45;101218.91;5008610;28;19913;-70
2022/03/14 07:09:19;;;;;;;30.27;14.30;;;;;;;4.31;46.13;101146.94;5009657;28;19920;-70
2022/03/14 07:11:51;;;;;;;27.17;13.73;;;;;;;4.26;46.41;101180.78;4999761;28;20292;-70
2022/03/14 07:14:18;;;;;;;29.33;14.85;;;;;;;4.08;46.30;101116.88;5009214;28;20433;-70
2022/03/14 07:16:43;;;;;;;32.83;14.32;;;;;;;4.05;46.93;101162.03;5025654;28;20035;-70
2022/03/14 07:19:10;;;;;;;31.00;15.63;;;;;;;3.99;46.93;101159.81;5028362;28;20049;-69
2022/03/14 07:21:36;;;;;;;30.77;14.70;;;;;;;4.19;47.21;101222.66;5028715;28;20401;-70
2022/03/14 07:24:02;;;;;;;30.80;15.00;;;;;;;4.52;46.93;101286.44;5028754;28;20061;-70
2022/03/14 07:26:27;;;;;;;33.40;15.20;;;;;;;4.32;46.53;101184.78;5010933;28;20052;-70
2022/03/14 07:28:52;;;;;;;31.52;15.20;;;;;;;4.48;46.79;101263.81;5010293;28;20471;-70
2022/03/14 07:31:20;;;;;;;34.30;15.07;;;;;;;4.12;46.61;101147.41;5028441;28;20057;-70
2022/03/14 07:33:45;;;;;;;30.88;14.98;;;;;;;4.61;46.37;101240.81;5028375;28;20112;-70
2022/03/14 07:36:11;;;;;;;33.45;14.57;;;;;;;5.20;45.83;101327.38;5010632;28;20462;-70
2022/03/14 07:38:38;;;;;;;31.73;14.30;;;;;;;5.83;45.22;101355.28;5028003;28;20021;-70
2022/03/14 07:41:03;;;;;;;28.97;15.57;;;;;;;6.00;43.81;101223.28;5008324;28;20017;-70
2022/03/14 07:43:28;;;;;;;31.63;15.60;;;;;;;5.85;42.94;101101.59;5027967;28;20064;-70
2022/03/14 07:45:54;;;;;;;28.80;15.00;;;;;;;5.50;43.17;101065.53;5027237;28;20033;-70
2022/03/14 07:48:19;;;;;;;32.20;15.00;;;;;;;5.66;43.38;101127.88;5026762;28;20032;-70
2022/03/14 07:50:45;;;;;;;33.03;16.20;;;;;;;5.44;42.78;101020.16;4989533;28;20125;-70
2022/03/14 07:53:10;;;;;;;33.77;15.37;;;;;;;6.10;42.81;101189.78;5008376;28;20066;-71
2022/03/14 07:55:36;;;;;;;32.07;13.73;;;;;;;6.53;41.65;101138.53;5008574;28;20026;-70
2022/03/14 07:58:02;;;;;;;32.83;16.08;;;;;;;6.43;41.12;101050.09;4990549;28;20065;-70
2022/03/14 08:00:27;;;;;;;36.08;18.40;;;;;;;6.91;40.06;101060.22;4990517;28;20034;-71
2022/03/14 08:02:52;;;;;;;35.43;18.30;;;;;;;6.85;39.75;100991.72;5008213;28;20034;-71
2022/03/14 08:05:24;;;;;;;37.90;18.37;;;;;;;7.16;39.11;100979.25;5007094;28;20022;-70
2022/03/14 08:07:50;;;;;;;41.33;18.05;;;;;;;8.01;38.62;101074.44;5021301;28;20044;-70
2022/03/14 08:10:17;;;;;;;;;;;;;;;7.50;38.24;100870.84;5027921;28;20047;-70
2022/03/14 08:12:49;;;;;;;29.15;15.38;;;;;;;7.69;39.03;101020.66;5010155;28;19916;-71
2022/03/14 08:15:19;;;;;;;40.45;17.80;;;;;;;8.03;38.13;100999.84;5009277;28;20045;-71
2022/03/14 08:17:44;;;;;;;34.55;17.67;;;;;;;8.77;37.33;101073.75;5009026;28;20044;-71
2022/03/14 08:20:10;;;;;;;32.63;18.05;;;;;;;9.46;36.21;101066.41;4992115;28;20494;-71
2022/03/14 08:22:36;;;;;;;34.17;18.30;;;;;;;7.98;36.16;100698.97;5027024;28;20087;-71
2022/03/14 08:25:01;;;;;;;31.35;16.63;;;;;;;8.18;36.61;100828.22;5009101;28;20562;-71
2022/03/14 08:27:27;;;;;;;30.50;17.40;;;;;;;8.26;36.05;100800.88;5009568;28;20033;-71
2022/03/14 08:29:52;;;;;;;30.47;16.53;;;;;;;8.55;36.43;100898.44;5025647;28;20061;-70
2022/03/14 08:32:19;;;;;;;35.20;18.63;;;;;;;8.67;35.63;100825.41;5009561;28;20552;-71
2022/03/14 08:34:45;;;;;;;29.98;16.27;;;;;;;8.55;35.74;100830.09;5026028;28;20106;-71
2022/03/14 08:37:11;;;;;;;30.85;15.98;;;;;;;8.27;35.62;100772.50;5025632;28;20052;-71
2022/03/14 08:39:36;;;;;;;36.97;16.17;;;;;;;7.53;36.71;100684.59;5026514;28;20546;-71
2022/03/14 08:42:04;;;;;;;29.48;15.63;;;;;;;7.94;36.73;100791.50;5027210;28;20443;-71
2022/03/14 08:44:29;;;;;;;27.38;14.52;;;;;;;8.58;35.50;100800.50;5027156;28;20487;-71
2022/03/14 08:46:54;;;;;;;33.63;15.40;;;;;;;8.67;35.83;100867.97;5027542;28;20032;-70
2022/03/14 08:49:20;;;;;;;28.43;15.63;;;;;;;7.99;35.82;100645.66;5026640;28;20037;-71
2022/03/14 08:51:45;;;;;;;26.50;14.87;;;;;;;8.81;35.91;100899.44;5026875;28;20086;-71
2022/03/14 08:54:11;;;;;;;29.77;14.13;;;;;;;8.89;35.52;100874.72;5025218;28;20475;-71
2022/03/14 08:56:37;;;;;;;27.27;13.23;;;;;;;8.92;35.51;100854.94;5025893;28;20021;-71
2022/03/14 08:59:04;;;;;;;27.85;14.60;;;;;;;10.19;35.16;101039.69;5025223;28;20029;-71
2022/03/14 09:01:30;;;;;;;28.23;14.80;;;;;;;10.39;33.97;100962.97;5026544;28;20458;-71
2022/03/14 09:03:55;;;;;;;24.02;14.18;;;;;;;11.00;32.81;100918.44;5026892;28;20037;-71
2022/03/14 09:06:21;;;;;;;29.70;14.37;;;;;;;10.37;33.19;100783.47;5025340;28;20520;-71
2022/03/14 09:08:46;;;;;;;27.13;14.97;;;;;;;9.60;33.94;100692.72;5008539;28;20464;-71
2022/03/14 09:11:11;;;;;;;28.23;13.67;;;;;;;10.14;34.44;100925.44;5026480;28;20113;-70
2022/03/14 09:13:38;;;;;;;26.70;14.97;;;;;;;10.99;33.21;100930.94;5026579;28;20060;-70
2022/03/14 09:16:04;;;;;;;21.92;13.23;;;;;;;10.83;32.55;100834.72;5008688;28;20037;-70
2022/03/14 09:18:31;;;;;;;29.23;15.00;;;;;;;9.12;32.56;100411.72;5026224;28;20037;-70
2022/03/14 09:20:56;;;;;;;23.48;12.60;;;;;;;8.90;34.26;100583.53;5024796;28;20033;-70
2022/03/14 09:23:28;;;;;;;24.52;13.43;;;;;;;9.57;33.94;100725.00;5062596;28;20390;-71
2022/03/14 09:25:55;;;;;;;24.40;14.13;;;;;;;9.86;33.06;100691.88;5062519;28;20066;-71
2022/03/14 09:28:20;;;;;;;;;;;;;;;9.53;34.03;100734.34;5063408;28;20024;-71
2022/03/14 09:30:46;;;;;;;27.05;12.77;;;;;;;9.50;33.42;100642.19;5061168;28;20351;-71
2022/03/14 09:33:11;;;;;;;29.37;14.90;;;;;;;9.05;33.82;100570.50;5061591;28;20096;-71
2022/03/14 09:35:37;;;;;;;24.35;13.38;;;;;;;9.40;34.31;100740.06;5062901;28;20065;-71
2022/03/14 09:38:03;;;;;;;23.73;13.17;;;;;;;9.21;34.66;100719.75;5061722;28;20055;-71
2022/03/14 09:40:30;;;;;;;28.80;13.80;;;;;;;8.77;35.14;100663.78;5062208;28;20833;-71
2022/03/14 09:42:59;;;;;;;29.00;13.02;;;;;;;8.73;35.07;100619.81;5062492;28;20029;-71
2022/03/14 09:45:25;;;;;;;29.08;13.88;;;;;;;9.35;34.81;100778.81;5062448;28;20087;-71
2022/03/14 09:47:59;;;;;;;27.48;14.27;;;;;;;10.15;34.08;100867.56;5062391;28;20103;-71
2022/03/14 09:50:38;;;;;;;25.00;12.73;;;;;;;10.12;33.84;100812.69;5062345;28;20033;-71
2022/03/14 09:53:05;;;;;;;24.13;13.10;;;;;;;10.19;33.20;100724.03;5062167;28;20029;-72
2022/03/14 09:55:37;;;;;;;28.63;14.07;;;;;;;10.81;33.44;100922.19;5062077;28;20117;-71
2022/03/14 09:58:03;;;;;;;26.58;13.88;;;;;;;9.92;33.09;100645.88;5062011;28;20039;-72
2022/03/14 10:00:29;;;;;;;26.77;13.30;;;;;;;10.98;32.54;100849.16;5060607;28;20506;-71
2022/03/14 10:02:54;;;;;;;21.83;12.25;;;;;;;11.08;32.19;100810.75;5062131;28;20056;-71
2022/03/14 10:05:20;;;;;;;26.45;14.57;;;;;;;10.57;32.44;100707.50;5060983;28;20394;-70
2022/03/14 10:07:45;;;;;;;26.53;14.10;;;;;;;10.99;33.35;100884.69;5062303;28;20494;-71
2022/03/14 10:10:12;;;;;;;21.70;13.17;;;;;;;10.95;32.76;100828.06;5060427;28;20046;-71
2022/03/14 10:12:38;;;;;;;24.70;13.85;;;;;;;10.62;32.72;100751.56;5061820;28;20063;-71
2022/03/14 10:15:05;;;;;;;25.25;12.32;;;;;;;11.46;32.34;100886.81;5060826;28;20565;-71
2022/03/14 10:17:32;;;;;;;24.73;14.43;;;;;;;11.19;31.57;100682.16;5060842;28;20033;-71
2022/03/14 10:20:00;;;;;;;24.42;14.15;;;;;;;12.15;31.63;100922.16;5061389;28;20482;-71
2022/03/14 10:22:33;;;;;;;22.65;13.88;;;;;;;12.07;31.32;100847.22;5061471;28;20086;-72
2022/03/14 10:25:09;;;;;;;22.40;13.60;;;;;;;11.59;31.19;100696.50;5063056;28;20047;-71
2022/03/14 10:27:35;;;;;;;26.45;14.25;;;;;;;11.20;32.13;100739.97;5063667;28;20345;-71
2022/03/14 10:30:03;;;;;;;21.02;13.00;;;;;;;12.38;31.45;100953.59;5063350;28;20517;-72
2022/03/14 10:32:33;;;;;;;25.48;12.52;;;;;;;12.06;31.43;100810.78;5063175;28;20331;-72
2022/03/14 10:35:00;;;;;;;24.40;13.40;;;;;;;11.81;30.96;100679.72;5047785;28;20028;-71
2022/03/14 10:37:28;;;;;;;21.25;12.50;;;;;;;12.09;31.63;100826.50;5048609;28;20482;-71
2022/03/14 10:40:11;;;;;;;25.73;13.20;;;;;;;12.98;30.92;100954.97;5046464;28;20099;-72
2022/03/14 10:42:42;;;;;;;25.98;13.15;;;;;;;13.75;29.56;100909.47;5050036;28;20450;-72
2022/03/14 10:45:12;;;;;;;26.77;13.57;;;;;;;11.79;30.55;100515.88;5048330;28;20032;-72
2022/03/14 10:47:43;;;;;;;24.38;14.10;;;;;;;11.67;31.24;100602.88;5047997;28;20060;-71
2022/03/14 10:50:09;;;;;;;24.98;13.60;;;;;;;12.62;30.77;100795.53;5030096;28;20041;-72
2022/03/14 10:52:35;;;;;;;25.08;14.50;;;;;;;11.65;30.74;100511.28;5047887;28;20063;-71
2022/03/14 10:55:10;;;;;;;25.30;14.67;;;;;;;11.06;32.34;100599.03;5048156;28;20533;-71
2022/03/14 10:57:35;;;;;;;25.13;14.60;;;;;;;11.01;32.59;100628.09;5048007;28;20055;-71
2022/03/14 11:00:05;;;;;;;25.75;12.93;;;;;;;11.49;32.45;100760.81;5030132;28;20024;-71
2022/03/14 11:02:31;;;;;;;25.88;14.05;;;;;;;12.39;31.39;100824.09;5046607;28;20036;-71
2022/03/14 11:04:59;;;;;;;22.40;13.75;;;;;;;11.75;31.48;100645.66;5046635;28;20029;-71
2022/03/14 11:07:26;;;;;;;23.45;14.32;;;;;;;12.46;31.49;100838.44;5046676;28;20037;-72
2022/03/14 11:09:56;;;;;;;24.45;15.32;;;;;;;12.43;31.36;100820.88;5046803;28;20160;-72
2022/03/14 11:12:23;;;;;;;26.98;13.45;;;;;;;12.74;31.58;100889.75;5046607;28;20515;-71
2022/03/14 11:14:59;;;;;;;29.25;14.15;;;;;;;12.57;31.41;100816.66;5029626;28;20037;-71
2022/03/14 11:17:29;;;;;;;26.40;14.38;;;;;;;12.56;32.18;100887.28;5047598;28;20033;-71